createdAt,value
2019-03-10T00:02:39.164Z,6.34
2019-03-10T00:07:46.836Z,5.24
2019-03-10T00:12:54.472Z,5.99
2019-03-10T00:18:02.155Z,7.58
2019-03-10T00:23:09.785Z,7.47
2019-03-10T00:28:17.397Z,6.57
2019-03-10T00:33:25.047Z,7.24
2019-03-10T00:38:32.944Z,6.92
2019-03-10T00:43:40.588Z,7.14
2019-03-10T00:48:48.209Z,6.73
2019-03-10T00:53:56.074Z,7.00
2019-03-10T00:59:03.735Z,7.62
2019-03-10T01:04:11.583Z,6.15
2019-03-10T01:09:19.228Z,5.97
2019-03-10T01:14:26.870Z,6.12
2019-03-10T01:19:34.601Z,6.38
2019-03-10T01:24:42.267Z,5.80
2019-03-10T01:29:49.972Z,5.83
2019-03-10T01:34:57.663Z,6.94
2019-03-10T01:40:05.320Z,6.39
2019-03-10T01:45:13.004Z,5.77
2019-03-10T01:50:20.665Z,6.84
2019-03-10T01:55:28.280Z,6.11
2019-03-10T02:00:35.960Z,6.15
2019-03-10T02:05:43.634Z,6.97
2019-03-10T02:10:51.312Z,5.94
2019-03-10T02:15:58.954Z,6.00
2019-03-10T02:21:06.680Z,6.05
2019-03-10T02:26:14.343Z,6.14
2019-03-10T02:31:22.095Z,7.04
2019-03-10T02:36:29.766Z,5.58
2019-03-10T02:41:37.449Z,5.62
2019-03-10T02:46:45.121Z,5.88
2019-03-10T02:51:52.796Z,5.15
2019-03-10T02:57:00.705Z,5.65
2019-03-10T03:02:08.381Z,5.64
2019-03-10T03:07:16.052Z,5.83
2019-03-10T03:12:23.722Z,4.62
2019-03-10T03:17:31.407Z,5.42
2019-03-10T03:22:39.103Z,6.78
2019-03-10T03:27:46.765Z,6.11
2019-03-10T03:32:54.448Z,6.28
2019-03-10T03:38:02.123Z,6.84
2019-03-10T03:43:09.816Z,5.87
2019-03-10T03:48:17.479Z,5.46
2019-03-10T03:53:25.204Z,5.77
2019-03-10T03:58:32.880Z,6.91
2019-03-10T04:03:40.669Z,5.59
2019-03-10T04:08:48.341Z,6.12
2019-03-10T04:13:56.024Z,5.54
2019-03-10T04:19:03.709Z,5.54
2019-03-10T04:24:11.455Z,5.68
2019-03-10T04:29:21.557Z,7.16
2019-03-10T04:34:26.317Z,6.13
2019-03-10T04:39:34.009Z,7.00
2019-03-10T04:44:41.685Z,5.50
2019-03-10T04:49:49.662Z,5.47
2019-03-10T04:54:57.341Z,7.09
2019-03-10T05:00:05.173Z,5.85
2019-03-10T05:05:12.790Z,6.69
2019-03-10T05:10:20.520Z,6.40
2019-03-10T05:15:28.181Z,7.87
2019-03-10T05:20:35.876Z,6.50
2019-03-10T05:25:43.493Z,6.94
2019-03-10T05:30:51.192Z,6.76
2019-03-10T05:35:58.882Z,8.41
2019-03-10T05:41:06.532Z,6.69
2019-03-10T05:46:14.220Z,7.05
2019-03-10T05:51:21.884Z,6.99
2019-03-10T05:56:29.612Z,6.79
2019-03-10T06:01:37.284Z,6.68
2019-03-10T06:06:44.976Z,8.14
2019-03-10T06:11:52.649Z,8.26
2019-03-10T06:17:00.332Z,5.81
2019-03-10T06:22:08.017Z,6.40
2019-03-10T06:27:15.644Z,7.22
2019-03-10T06:32:23.306Z,8.65
2019-03-10T06:37:30.916Z,6.43
2019-03-10T06:42:38.621Z,6.47
2019-03-10T06:47:46.224Z,6.23
2019-03-10T06:52:53.860Z,7.97
2019-03-10T06:58:01.520Z,6.00
2019-03-10T07:03:09.166Z,5.63
2019-03-10T07:08:16.764Z,7.19
2019-03-10T07:13:24.452Z,6.33
2019-03-10T07:18:32.181Z,4.61
2019-03-10T07:23:39.865Z,4.99
2019-03-10T07:28:47.488Z,5.30
2019-03-10T07:33:55.166Z,4.89
2019-03-10T07:39:02.780Z,4.51
2019-03-10T07:44:10.433Z,4.96
2019-03-10T07:49:18.382Z,4.87
2019-03-10T07:54:25.784Z,5.45
2019-03-10T07:59:33.440Z,5.32
2019-03-10T08:04:41.268Z,5.34
2019-03-10T08:09:58.320Z,6.39
2019-03-10T08:14:55.975Z,6.81
2019-03-10T08:20:03.675Z,7.21
2019-03-10T08:25:11.308Z,8.93
2019-03-10T08:30:19.072Z,24.13
2019-03-10T08:35:26.689Z,14.79
2019-03-10T08:40:34.416Z,10.63
2019-03-10T08:45:42.024Z,12.81
2019-03-10T08:50:49.702Z,9.74
2019-03-10T08:55:57.384Z,10.55
2019-03-10T09:01:05.064Z,10.82
2019-03-10T09:06:12.801Z,10.33
2019-03-10T09:11:20.415Z,11.94
2019-03-10T09:16:28.149Z,8.89
2019-03-10T09:21:35.852Z,6.45
2019-03-10T09:26:43.545Z,6.73
2019-03-10T09:31:51.180Z,4.83
2019-03-10T09:36:59.165Z,4.94
2019-03-10T09:42:06.832Z,5.06
2019-03-10T09:47:14.544Z,4.68
2019-03-10T09:52:22.177Z,4.23
2019-03-10T09:57:29.874Z,4.35
2019-03-10T10:02:37.537Z,5.31
2019-03-10T10:07:45.270Z,4.40
2019-03-10T10:12:52.903Z,4.68
2019-03-10T10:18:00.600Z,6.05
2019-03-10T10:23:08.273Z,5.33
2019-03-10T10:28:15.965Z,5.37
2019-03-10T10:33:23.648Z,4.86
2019-03-10T10:38:31.330Z,4.75
2019-03-10T10:43:39.013Z,5.59
2019-03-10T10:48:46.756Z,5.15
2019-03-10T10:53:54.424Z,5.37
2019-03-10T10:59:02.177Z,5.27
2019-03-10T11:04:09.840Z,6.38
2019-03-10T11:09:17.522Z,6.14
2019-03-10T11:14:25.300Z,5.92
2019-03-10T11:19:32.990Z,7.87
2019-03-10T11:24:40.727Z,7.85
2019-03-10T11:29:48.406Z,7.94
2019-03-10T11:34:56.242Z,6.76
2019-03-10T11:40:03.931Z,6.98
2019-03-10T11:45:11.669Z,6.84
2019-03-10T11:50:19.375Z,6.38
2019-03-10T11:55:27.123Z,6.19
2019-03-10T12:00:34.764Z,5.89
2019-03-10T12:05:42.449Z,5.33
2019-03-10T12:10:50.073Z,5.00
2019-03-10T12:15:57.804Z,7.24
2019-03-10T12:21:05.441Z,7.98
2019-03-10T12:26:13.194Z,7.63
2019-03-10T12:31:20.796Z,5.01
2019-03-10T12:36:28.555Z,2.83
2019-03-10T12:41:36.253Z,2.40
2019-03-10T12:46:43.963Z,2.88
2019-03-10T12:51:51.564Z,2.14
2019-03-10T12:56:59.264Z,2.89
2019-03-10T13:02:06.904Z,2.99
2019-03-10T13:07:14.652Z,2.54
2019-03-10T13:12:22.316Z,2.93
2019-03-10T13:17:30.020Z,2.35
2019-03-10T13:22:37.670Z,2.95
2019-03-10T13:27:45.328Z,2.98
2019-03-10T13:32:52.969Z,2.78
2019-03-10T13:38:00.704Z,2.43
2019-03-10T13:43:08.324Z,2.68
2019-03-10T13:48:15.992Z,3.08
2019-03-10T13:53:23.639Z,3.14
2019-03-10T13:58:31.321Z,2.75
2019-03-10T14:03:38.949Z,2.82
2019-03-10T14:08:46.720Z,3.11
2019-03-10T14:13:54.365Z,2.92
2019-03-10T14:19:02.070Z,2.97
2019-03-10T14:24:09.716Z,2.86
2019-03-10T14:29:17.564Z,2.08
2019-03-10T14:34:25.212Z,1.82
2019-03-10T14:39:32.873Z,1.75
2019-03-10T14:44:40.526Z,1.58
2019-03-10T14:49:48.260Z,1.27
2019-03-10T14:54:55.908Z,1.32
2019-03-10T15:00:03.968Z,1.36
2019-03-10T15:05:11.501Z,1.22
2019-03-10T15:10:19.128Z,1.01
2019-03-10T15:15:26.797Z,0.80
2019-03-10T15:20:34.418Z,0.91
2019-03-10T15:25:42.108Z,0.82
2019-03-10T15:30:50.570Z,0.92
2019-03-10T15:35:56.921Z,1.05
2019-03-10T15:41:04.524Z,0.99
2019-03-10T15:46:12.164Z,1.01
2019-03-10T15:51:19.797Z,0.91
2019-03-10T15:56:27.464Z,0.92
2019-03-10T16:01:35.143Z,0.96
2019-03-10T16:06:42.817Z,0.95
2019-03-10T16:11:50.444Z,1.18
2019-03-10T16:16:58.157Z,1.30
2019-03-10T16:22:05.837Z,1.41
2019-03-10T16:27:13.505Z,1.52
2019-03-10T16:32:21.153Z,1.81
2019-03-10T16:37:28.833Z,1.80
2019-03-10T16:42:36.478Z,2.06
2019-03-10T16:47:44.216Z,1.77
2019-03-10T16:52:51.827Z,1.75
2019-03-10T16:57:59.523Z,1.61
2019-03-10T17:03:07.162Z,1.66
2019-03-10T17:08:14.846Z,1.98
2019-03-10T17:13:22.526Z,1.59
2019-03-10T17:18:30.264Z,1.69
2019-03-10T17:23:37.941Z,1.98
2019-03-10T17:28:45.700Z,1.64
2019-03-10T17:33:53.393Z,1.84
2019-03-10T17:39:01.094Z,1.98
2019-03-10T17:44:08.765Z,1.95
2019-03-10T17:49:16.449Z,1.98
2019-03-10T17:54:24.176Z,2.07
2019-03-10T17:59:31.852Z,2.09
2019-03-10T18:04:39.592Z,2.37
2019-03-10T18:09:47.269Z,2.08
2019-03-10T18:14:55.004Z,2.46
2019-03-10T18:20:02.673Z,2.94
2019-03-10T18:25:10.396Z,2.47
2019-03-10T18:30:18.131Z,2.76
2019-03-10T18:35:25.837Z,2.31
2019-03-10T18:40:33.505Z,1.60
2019-03-10T18:45:41.177Z,1.28
2019-03-10T18:50:48.844Z,1.77
2019-03-10T18:55:56.685Z,1.70
2019-03-10T19:01:04.350Z,1.97
2019-03-10T19:06:12.048Z,2.06
2019-03-10T19:11:19.720Z,2.26
2019-03-10T19:16:27.591Z,1.92
2019-03-10T19:21:35.217Z,1.74
2019-03-10T19:26:43.014Z,1.94
2019-03-10T19:31:50.682Z,2.11
2019-03-10T19:36:58.380Z,2.18
2019-03-10T19:42:06.064Z,2.06
2019-03-10T19:47:13.765Z,2.16
2019-03-10T19:52:21.485Z,2.93
2019-03-10T19:57:29.212Z,2.77
2019-03-10T20:02:36.849Z,2.46
2019-03-10T20:07:44.552Z,2.33
2019-03-10T20:12:52.931Z,2.36
2019-03-10T20:18:00.600Z,2.33
2019-03-10T20:23:08.290Z,2.21
2019-03-10T20:28:15.973Z,2.86
2019-03-10T20:33:23.920Z,2.62
2019-03-10T20:38:31.528Z,2.86
2019-03-10T20:43:39.232Z,2.77
2019-03-10T20:48:46.886Z,3.02
2019-03-10T20:53:54.593Z,3.21
2019-03-10T20:59:02.272Z,3.18
2019-03-10T21:04:09.976Z,3.17
2019-03-10T21:09:17.649Z,3.57
2019-03-10T21:14:25.433Z,4.01
2019-03-10T21:19:33.093Z,4.16
2019-03-10T21:24:40.836Z,4.14
2019-03-10T21:29:48.568Z,4.11
2019-03-10T21:34:56.276Z,4.34
2019-03-10T21:40:03.941Z,4.19
2019-03-10T21:45:11.772Z,4.12
2019-03-10T21:50:19.452Z,4.88
2019-03-10T21:55:27.156Z,4.84
2019-03-10T22:00:34.828Z,4.13
2019-03-10T22:05:42.506Z,3.76
2019-03-10T22:10:50.259Z,4.50
2019-03-10T22:15:57.874Z,4.04
2019-03-10T22:21:05.541Z,3.51
2019-03-10T22:26:13.221Z,3.55
2019-03-10T22:31:20.908Z,3.46
2019-03-10T22:36:28.582Z,3.57
2019-03-10T22:41:36.392Z,3.69
2019-03-10T22:46:44.060Z,3.36
2019-03-10T22:51:51.759Z,3.63
2019-03-10T22:56:59.392Z,3.38
2019-03-10T23:02:07.064Z,3.31
2019-03-10T23:07:14.689Z,3.27
2019-03-10T23:12:22.332Z,3.34
2019-03-10T23:17:33.743Z,2.36
2019-03-10T23:22:31.360Z,2.01
2019-03-10T23:27:39.003Z,2.24
2019-03-10T23:32:46.644Z,3.02
2019-03-10T23:37:54.268Z,2.74
2019-03-10T23:43:01.880Z,3.12
2019-03-10T23:48:09.516Z,2.90
2019-03-10T23:53:17.153Z,3.02
2019-03-10T23:58:24.893Z,3.52
